createdAt,value
2022-09-01T00:01:41.586Z,101572.66
2022-09-01T00:04:10.071Z,101579.03
2022-09-01T00:06:40.790Z,101569.25
2022-09-01T00:09:10.554Z,101573.13
2022-09-01T00:11:38.029Z,101569.41
2022-09-01T00:14:07.040Z,101570.09
2022-09-01T00:16:54.103Z,101572.66
2022-09-01T00:19:21.248Z,101571.28
2022-09-01T00:21:47.460Z,101572.09
2022-09-01T00:24:16.326Z,101573.13
2022-09-01T00:26:42.632Z,101565.34
2022-09-01T00:29:08.840Z,101571.72
2022-09-01T00:31:35.340Z,101580.16
2022-09-01T00:34:01.899Z,101569.66
2022-09-01T00:36:28.193Z,101570.00
2022-09-01T00:38:54.958Z,101570.84
2022-09-01T00:41:24.799Z,101564.91
2022-09-01T00:43:53.807Z,101567.22
2022-09-01T00:46:29.034Z,101565.53
2022-09-01T00:49:08.026Z,101561.16
2022-09-01T00:51:38.038Z,101568.41
2022-09-01T00:54:06.785Z,101569.03
2022-09-01T00:56:34.948Z,101562.94
2022-09-01T00:59:01.688Z,101560.09
2022-09-01T01:01:28.038Z,101566.47
2022-09-01T01:03:54.375Z,101560.56
2022-09-01T01:06:24.062Z,101561.03
2022-09-01T01:08:59.019Z,101552.56
2022-09-01T01:11:28.978Z,101557.88
2022-09-01T01:13:58.119Z,101553.13
2022-09-01T01:16:27.127Z,101558.81
2022-09-01T01:18:53.571Z,101562.28
2022-09-01T01:21:52.091Z,101555.44
2022-09-01T01:24:29.181Z,101553.66
2022-09-01T01:26:59.808Z,101559.78
2022-09-01T01:29:35.335Z,101555.31
2022-09-01T01:32:02.268Z,101547.84
2022-09-01T01:34:28.868Z,101548.44
2022-09-01T01:36:55.324Z,101551.72
2022-09-01T01:39:25.602Z,101546.09
2022-09-01T01:41:53.767Z,101557.47
2022-09-01T01:44:28.381Z,101551.81
2022-09-01T01:46:57.932Z,101553.97
2022-09-01T01:49:29.207Z,101554.00
2022-09-01T01:51:58.087Z,101556.31
2022-09-01T01:54:32.696Z,101560.28
2022-09-01T01:57:04.577Z,101550.28
2022-09-01T01:59:31.248Z,101546.59
2022-09-01T02:01:58.380Z,101541.97
2022-09-01T02:04:24.738Z,101544.41
2022-09-01T02:06:53.164Z,101547.97
2022-09-01T02:09:21.408Z,101539.78
2022-09-01T02:11:48.260Z,101543.06
2022-09-01T02:14:16.236Z,101536.56
2022-09-01T02:16:42.552Z,101548.28
2022-09-01T02:19:12.239Z,101548.44
2022-09-01T02:21:45.076Z,101547.19
2022-09-01T02:24:12.010Z,101553.22
2022-09-01T02:26:43.005Z,101551.97
2022-09-01T02:29:18.134Z,101552.66
2022-09-01T02:31:46.811Z,101548.00
2022-09-01T02:34:14.194Z,101559.31
2022-09-01T02:36:52.018Z,101548.00
2022-09-01T02:39:25.844Z,101548.56
2022-09-01T02:41:53.887Z,101550.94
2022-09-01T02:44:24.330Z,101544.88
2022-09-01T02:46:50.898Z,101553.47
2022-09-01T02:49:25.868Z,101546.00
2022-09-01T02:51:54.242Z,101549.22
2022-09-01T02:54:24.689Z,101548.78
2022-09-01T02:56:54.591Z,101545.53
2022-09-01T02:59:24.731Z,101541.44
2022-09-01T03:01:53.928Z,101545.81
2022-09-01T03:04:22.553Z,101538.34
2022-09-01T03:06:49.886Z,101538.84
2022-09-01T03:09:18.321Z,101539.53
2022-09-01T03:11:47.219Z,101529.81
2022-09-01T03:14:14.397Z,101539.38
2022-09-01T03:16:41.340Z,101541.47
2022-09-01T03:19:09.608Z,101540.94
2022-09-01T03:21:40.157Z,101536.94
2022-09-01T03:24:09.119Z,101535.53
2022-09-01T03:26:36.345Z,101532.38
2022-09-01T03:29:04.046Z,101522.94
2022-09-01T03:31:31.178Z,101532.34
2022-09-01T03:34:00.808Z,101531.06
2022-09-01T03:36:31.071Z,101530.47
2022-09-01T03:38:57.652Z,101533.56
2022-09-01T03:41:28.548Z,101537.75
2022-09-01T03:43:58.167Z,101536.41
2022-09-01T03:46:35.732Z,101525.81
2022-09-01T03:49:03.347Z,101530.34
2022-09-01T03:51:31.096Z,101534.97
2022-09-01T03:54:00.051Z,101537.91
2022-09-01T03:56:28.581Z,101537.19
2022-09-01T03:58:57.358Z,101537.47
2022-09-01T04:01:25.290Z,101533.66
2022-09-01T04:03:52.303Z,101531.13
2022-09-01T04:06:24.505Z,101535.75
2022-09-01T04:08:55.454Z,101535.03
2022-09-01T04:11:24.188Z,101535.16
2022-09-01T04:13:52.452Z,101538.13
2022-09-01T04:16:44.101Z,101528.53
2022-09-01T04:19:20.666Z,101534.44
2022-09-01T04:21:50.585Z,101537.13
2022-09-01T04:24:19.261Z,101531.78
2022-09-01T04:26:49.530Z,101535.03
2022-09-01T04:29:19.494Z,101535.03
2022-09-01T04:31:48.905Z,101534.19
2022-09-01T04:34:15.423Z,101530.41
2022-09-01T04:36:44.838Z,101533.09
2022-09-01T04:39:12.500Z,101538.44
2022-09-01T04:41:42.670Z,101538.78
2022-09-01T04:44:09.337Z,101537.91
2022-09-01T04:46:42.512Z,101536.81
2022-09-01T04:49:12.896Z,101533.13
2022-09-01T04:51:41.184Z,101540.91
2022-09-01T04:54:11.205Z,101536.31
2022-09-01T04:56:38.657Z,101541.41
2022-09-01T04:59:11.191Z,101536.78
2022-09-01T05:01:46.505Z,101540.88
2022-09-01T05:04:20.484Z,101544.28
2022-09-01T05:06:50.453Z,101539.63
2022-09-01T05:09:19.968Z,101539.50
2022-09-01T05:11:53.055Z,101537.53
2022-09-01T05:14:26.169Z,101546.00
2022-09-01T05:16:58.945Z,101541.94
2022-09-01T05:19:29.925Z,101548.59
2022-09-01T05:21:59.968Z,101546.81
2022-09-01T05:24:30.567Z,101543.44
2022-09-01T05:27:00.573Z,101553.50
2022-09-01T05:29:28.874Z,101546.59
2022-09-01T05:31:56.664Z,101546.06
2022-09-01T05:34:26.892Z,101545.25
2022-09-01T05:36:59.552Z,101547.94
2022-09-01T05:39:27.467Z,101546.00
2022-09-01T05:41:54.084Z,101548.81
2022-09-01T05:44:23.028Z,101551.66
2022-09-01T05:46:53.289Z,101550.81
2022-09-01T05:49:20.051Z,101545.44
2022-09-01T05:51:51.861Z,101550.81
2022-09-01T05:54:25.785Z,101551.66
2022-09-01T05:56:53.722Z,101556.06
2022-09-01T05:59:26.709Z,101558.75
2022-09-01T06:02:13.299Z,101557.19
2022-09-01T06:04:44.332Z,101560.97
2022-09-01T06:07:17.670Z,101562.09
2022-09-01T06:09:49.894Z,101568.44
2022-09-01T06:12:20.463Z,101553.56
2022-09-01T06:14:48.588Z,101555.50
2022-09-01T06:17:16.849Z,101555.78
2022-09-01T06:19:43.874Z,101558.59
2022-09-01T06:22:10.737Z,101556.00
2022-09-01T06:24:43.459Z,101555.41
2022-09-01T06:27:10.614Z,101554.50
2022-09-01T06:29:39.903Z,101545.69
2022-09-01T06:32:09.876Z,101558.41
2022-09-01T06:34:39.901Z,101554.13
2022-09-01T06:37:07.082Z,101548.81
2022-09-01T06:39:34.551Z,101548.94
2022-09-01T06:42:04.784Z,101551.72
2022-09-01T06:44:43.745Z,101553.66
2022-09-01T06:47:09.917Z,101549.34
2022-09-01T06:49:36.769Z,101552.66
2022-09-01T06:52:09.114Z,101557.97
2022-09-01T06:54:35.971Z,101558.22
2022-09-01T07:02:39.760Z,101560.00
2022-09-01T07:08:31.870Z,101554.88
2022-09-01T07:11:19.998Z,101553.78
2022-09-01T07:16:51.145Z,101552.78
2022-09-01T07:19:20.159Z,101553.50
2022-09-01T07:22:35.298Z,101555.75
2022-09-01T07:24:46.245Z,101567.75
2022-09-01T07:27:59.290Z,101562.38
2022-09-01T07:30:27.209Z,101565.44
2022-09-01T07:32:54.175Z,101564.09
2022-09-01T07:35:22.602Z,101559.91
2022-09-01T07:38:48.351Z,101571.72
2022-09-01T07:39:57.696Z,101566.63
2022-09-01T07:43:53.322Z,101568.88
2022-09-01T07:46:38.165Z,101570.59
2022-09-01T07:51:55.601Z,101569.78
2022-09-01T07:54:24.084Z,101579.63
2022-09-01T07:56:50.993Z,101583.88
2022-09-01T07:59:18.417Z,101576.41
2022-09-01T08:01:52.659Z,101576.91
2022-09-01T08:04:23.089Z,101575.56
2022-09-01T08:06:49.714Z,101583.16
2022-09-01T08:09:25.235Z,101583.16
2022-09-01T08:12:02.365Z,101578.06
2022-09-01T08:14:34.727Z,101585.53
2022-09-01T08:17:16.667Z,101587.19
2022-09-01T08:19:44.195Z,101582.44
2022-09-01T08:22:14.029Z,101584.44
2022-09-01T08:24:51.962Z,101580.88
2022-09-01T08:27:18.450Z,101580.38
2022-09-01T08:29:44.908Z,101583.09
2022-09-01T08:32:11.578Z,101579.50
2022-09-01T08:34:38.156Z,101573.94
2022-09-01T08:37:06.277Z,101574.56
2022-09-01T08:39:32.974Z,101569.09
2022-09-01T08:42:14.970Z,101569.38
2022-09-01T08:45:02.934Z,101573.41
2022-09-01T08:47:43.660Z,101566.00
2022-09-01T08:50:17.425Z,101572.56
2022-09-01T08:53:22.229Z,101574.41
2022-09-01T08:55:54.848Z,101570.97
2022-09-01T08:58:21.264Z,101566.59
2022-09-01T09:01:27.674Z,101567.66
2022-09-01T09:04:13.689Z,101563.50
2022-09-01T09:07:05.919Z,101556.34
2022-09-01T09:09:41.432Z,101556.41
2022-09-01T09:12:48.608Z,101558.69
2022-09-01T09:15:23.737Z,101557.63
2022-09-01T09:18:00.263Z,101559.38
2022-09-01T09:20:28.475Z,101559.75
2022-09-01T09:22:55.487Z,101560.00
2022-09-01T09:25:21.772Z,101557.06
2022-09-01T09:27:49.656Z,101552.44
2022-09-01T09:30:27.735Z,101551.69
2022-09-01T09:35:45.122Z,101546.94
2022-09-01T09:38:22.637Z,101549.09
2022-09-01T09:41:17.755Z,101552.28
2022-09-01T09:43:59.463Z,101555.47
2022-09-01T09:46:31.699Z,101542.75
2022-09-01T09:49:21.511Z,101541.25
2022-09-01T09:52:10.265Z,101550.22
2022-09-01T09:54:57.416Z,101545.25
2022-09-01T09:57:23.818Z,101548.63
2022-09-01T10:00:00.843Z,101549.53
2022-09-01T10:02:40.325Z,101550.22
2022-09-01T10:07:35.173Z,101538.13
2022-09-01T10:10:06.623Z,101547.78
2022-09-01T10:12:34.026Z,101534.00
2022-09-01T10:15:12.717Z,101536.00
2022-09-01T10:17:44.451Z,101531.50
2022-09-01T10:20:25.409Z,101527.94
2022-09-01T10:22:52.370Z,101524.19
2022-09-01T10:25:38.019Z,101529.63
2022-09-01T10:28:12.087Z,101523.78
2022-09-01T10:30:44.083Z,101526.50
2022-09-01T10:33:19.468Z,101526.34
2022-09-01T10:35:50.749Z,101529.16
2022-09-01T10:38:26.995Z,101530.22
2022-09-01T10:41:08.764Z,101524.94
2022-09-01T10:43:48.140Z,101526.50
2022-09-01T10:46:38.605Z,101527.91
2022-09-01T10:49:25.072Z,101519.97
2022-09-01T10:51:56.940Z,101515.03
2022-09-01T10:54:51.513Z,101513.78
2022-09-01T10:57:48.516Z,101506.38
2022-09-01T11:00:36.632Z,101502.25
2022-09-01T11:03:32.777Z,101505.56
2022-09-01T11:06:12.499Z,101501.03
2022-09-01T11:08:50.851Z,101504.28
2022-09-01T11:11:37.982Z,101506.47
2022-09-01T11:14:06.884Z,101502.13
2022-09-01T11:16:50.855Z,101499.88
2022-09-01T11:19:39.717Z,101497.41
2022-09-01T11:22:38.075Z,101492.16
2022-09-01T11:25:14.304Z,101489.88
2022-09-01T11:27:49.638Z,101499.13
2022-09-01T11:30:41.895Z,101489.06
2022-09-01T11:33:16.894Z,101484.47
2022-09-01T11:35:47.249Z,101485.28
2022-09-01T11:38:18.677Z,101485.91
2022-09-01T11:40:55.812Z,101490.75
2022-09-01T11:43:23.434Z,101487.75
2022-09-01T11:46:07.165Z,101491.97
2022-09-01T11:48:34.433Z,101488.22
2022-09-01T11:51:02.419Z,101481.50
2022-09-01T11:53:30.036Z,101488.22
2022-09-01T11:56:12.006Z,101494.53
2022-09-01T11:58:39.512Z,101483.78
2022-09-01T12:01:17.369Z,101485.66
2022-09-01T12:03:45.042Z,101487.13
2022-09-01T12:06:18.381Z,101480.94
2022-09-01T12:08:53.832Z,101484.06
2022-09-01T12:11:23.815Z,101482.47
2022-09-01T12:14:11.329Z,101481.06
2022-09-01T12:16:42.391Z,101471.63
2022-09-01T12:19:08.950Z,101484.88
2022-09-01T12:21:40.524Z,101474.16
2022-09-01T12:24:24.494Z,101474.81
2022-09-01T12:26:54.712Z,101481.94
2022-09-01T12:29:21.626Z,101471.00
2022-09-01T12:31:50.538Z,101469.66
2022-09-01T12:34:59.198Z,101466.25
2022-09-01T12:37:27.314Z,101464.13
2022-09-01T12:39:57.515Z,101463.31
2022-09-01T12:42:28.573Z,101471.59
2022-09-01T12:45:09.857Z,101477.03
2022-09-01T12:47:36.209Z,101475.28
2022-09-01T12:50:11.396Z,101480.38
2022-09-01T12:52:46.603Z,101486.50
2022-09-01T12:58:09.148Z,101475.78
2022-09-01T13:00:53.904Z,101471.34
2022-09-01T13:03:21.659Z,101467.09
2022-09-01T13:05:53.602Z,101468.31
2022-09-01T13:08:22.404Z,101461.31
2022-09-01T13:10:53.415Z,101456.75
2022-09-01T13:13:21.860Z,101452.88
2022-09-01T13:15:51.496Z,101445.13
2022-09-01T13:18:20.299Z,101444.00
2022-09-01T13:20:47.395Z,101444.94
2022-09-01T13:23:13.957Z,101445.28
2022-09-01T13:25:40.757Z,101438.53
2022-09-01T13:28:07.919Z,101447.84
2022-09-01T13:30:35.204Z,101451.47
2022-09-01T13:35:49.021Z,101447.50
2022-09-01T13:38:16.898Z,101441.03
2022-09-01T13:40:45.623Z,101449.19
2022-09-01T13:43:11.974Z,101448.31
2022-09-01T13:45:40.827Z,101448.25
2022-09-01T13:48:16.962Z,101447.19
2022-09-01T13:53:32.732Z,101448.53
2022-09-01T13:55:59.097Z,101445.19
2022-09-01T13:58:25.289Z,101441.09
2022-09-01T14:00:51.527Z,101447.59
2022-09-01T14:03:21.005Z,101441.09
2022-09-01T14:05:49.869Z,101446.25
2022-09-01T14:08:19.187Z,101450.16
2022-09-01T14:10:51.034Z,101445.69
2022-09-01T14:13:18.509Z,101449.91
2022-09-01T14:15:44.780Z,101445.69
2022-09-01T14:18:11.119Z,101440.28
2022-09-01T14:20:42.193Z,101441.16
2022-09-01T14:23:10.870Z,101439.06
2022-09-01T14:25:42.372Z,101438.25
2022-09-01T14:28:08.680Z,101433.88
2022-09-01T14:30:34.948Z,101443.13
2022-09-01T14:33:01.914Z,101438.72
2022-09-01T14:35:28.852Z,101436.34
2022-09-01T14:37:55.545Z,101436.13
2022-09-01T14:40:24.242Z,101433.84
2022-09-01T14:42:52.890Z,101432.81
2022-09-01T14:45:22.224Z,101438.66
2022-09-01T14:47:50.768Z,101429.69
2022-09-01T14:50:21.683Z,101431.59
2022-09-01T14:52:52.907Z,101424.00
2022-09-01T14:55:19.353Z,101423.63
2022-09-01T14:57:45.549Z,101420.03
2022-09-01T15:00:12.640Z,101428.41
2022-09-01T15:02:41.450Z,101429.09
2022-09-01T15:05:08.258Z,101423.41
2022-09-01T15:07:35.332Z,101419.19
2022-09-01T15:10:02.211Z,101421.72
2022-09-01T15:12:31.075Z,101422.34
2022-09-01T15:15:01.030Z,101418.31
2022-09-01T15:17:28.754Z,101426.88
2022-09-01T15:19:55.293Z,101417.84
2022-09-01T15:22:21.569Z,101424.00
2022-09-01T15:24:48.032Z,101419.56
2022-09-01T15:27:14.198Z,101421.19
2022-09-01T15:29:48.062Z,101417.19
2022-09-01T15:32:27.419Z,101418.84
2022-09-01T15:34:54.342Z,101420.19
2022-09-01T15:37:20.541Z,101412.66
2022-09-01T15:39:46.690Z,101423.19
2022-09-01T15:42:12.907Z,101423.34
2022-09-01T15:44:39.385Z,101415.16
2022-09-01T15:47:05.582Z,101408.66
2022-09-01T15:49:31.747Z,101418.91
2022-09-01T15:51:57.964Z,101416.38
2022-09-01T15:54:29.769Z,101413.03
2022-09-01T15:56:56.623Z,101413.44
2022-09-01T15:59:22.777Z,101421.38
2022-09-01T16:01:49.272Z,101419.28
2022-09-01T16:04:19.287Z,101414.22
2022-09-01T16:06:47.284Z,101419.44
2022-09-01T16:09:13.526Z,101410.44
2022-09-01T16:11:41.237Z,101416.31
2022-09-01T16:14:07.696Z,101403.75
2022-09-01T16:17:00.720Z,101408.81
2022-09-01T16:19:51.808Z,101409.72
2022-09-01T16:22:27.624Z,101405.78
2022-09-01T16:24:57.874Z,101402.84
2022-09-01T16:27:33.090Z,101402.38
2022-09-01T16:30:04.378Z,101399.84
2022-09-01T16:32:33.120Z,101396.22
2022-09-01T16:35:02.948Z,101393.28
2022-09-01T16:37:54.011Z,101394.53
2022-09-01T16:40:47.155Z,101402.78
2022-09-01T16:43:32.481Z,101389.59
2022-09-01T16:46:10.986Z,101398.00
2022-09-01T16:48:47.201Z,101386.66
2022-09-01T16:51:43.479Z,101390.41
2022-09-01T16:54:33.722Z,101384.09
2022-09-01T16:57:11.054Z,101386.03
2022-09-01T16:59:55.658Z,101385.78
2022-09-01T17:02:43.675Z,101386.28
2022-09-01T17:05:25.112Z,101392.50
2022-09-01T17:08:13.101Z,101390.59
2022-09-01T17:10:47.162Z,101388.03
2022-09-01T17:13:40.177Z,101388.72
2022-09-01T17:16:11.360Z,101392.44
2022-09-01T17:18:42.795Z,101397.31
2022-09-01T17:21:13.883Z,101397.19
2022-09-01T17:23:46.314Z,101405.25
2022-09-01T17:26:19.850Z,101399.88
2022-09-01T17:28:55.846Z,101405.97
2022-09-01T17:32:09.878Z,101402.44
2022-09-01T17:35:00.985Z,101408.75
2022-09-01T17:37:51.781Z,101415.94
2022-09-01T17:40:53.099Z,101419.53
2022-09-01T17:43:55.528Z,101422.97
2022-09-01T17:46:34.607Z,101421.94
2022-09-01T17:49:37.520Z,101420.38
2022-09-01T17:52:20.276Z,101427.44
2022-09-01T17:55:13.742Z,101430.09
2022-09-01T17:57:47.085Z,101438.00
2022-09-01T18:00:24.368Z,101432.16
2022-09-01T18:03:06.123Z,101442.06
2022-09-01T18:05:43.252Z,101443.84
2022-09-01T18:08:34.146Z,101446.06
2022-09-01T18:11:06.109Z,101449.72
2022-09-01T18:14:14.083Z,101443.34
2022-09-01T18:16:57.695Z,101453.72
2022-09-01T18:19:29.177Z,101447.84
2022-09-01T18:22:08.571Z,101456.63
2022-09-01T18:24:56.433Z,101461.56
2022-09-01T18:27:24.659Z,101463.72
2022-09-01T18:29:52.951Z,101461.88
2022-09-01T18:32:47.144Z,101465.94
2022-09-01T18:35:29.497Z,101468.28
2022-09-01T18:38:19.503Z,101480.44
2022-09-01T18:41:19.068Z,101477.88
2022-09-01T18:43:56.776Z,101477.00
2022-09-01T18:46:52.379Z,101482.53
2022-09-01T18:49:24.936Z,101480.66
2022-09-01T18:52:32.250Z,101490.75
2022-09-01T18:55:48.479Z,101487.50
2022-09-01T18:58:27.021Z,101484.78
2022-09-01T19:01:04.365Z,101486.56
2022-09-01T19:03:54.603Z,101489.56
2022-09-01T19:06:30.608Z,101490.34
2022-09-01T19:09:05.837Z,101490.81
2022-09-01T19:11:37.743Z,101490.91
2022-09-01T19:14:51.797Z,101497.78
2022-09-01T19:17:36.349Z,101495.03
2022-09-01T19:20:11.881Z,101492.84
2022-09-01T19:23:01.721Z,101494.59
2022-09-01T19:25:34.416Z,101496.94
2022-09-01T19:28:07.187Z,101496.84
2022-09-01T19:30:35.777Z,101494.66
2022-09-01T19:33:05.060Z,101501.09
2022-09-01T19:35:34.488Z,101500.06
2022-09-01T19:38:05.169Z,101498.28
2022-09-01T19:43:21.921Z,101492.16
2022-09-01T19:46:15.436Z,101504.69
2022-09-01T19:48:49.454Z,101493.84
2022-09-01T19:51:23.548Z,101499.13
2022-09-01T19:54:11.210Z,101493.13
2022-09-01T19:56:47.521Z,101501.94
2022-09-01T19:59:27.954Z,101500.81
2022-09-01T20:01:59.601Z,101498.19
2022-09-01T20:04:40.229Z,101507.81
2022-09-01T20:07:12.630Z,101499.53
2022-09-01T20:09:52.726Z,101504.34
2022-09-01T20:12:40.111Z,101510.16
2022-09-01T20:15:21.430Z,101502.69
2022-09-01T20:17:55.637Z,101503.25
2022-09-01T20:20:29.313Z,101510.94
2022-09-01T20:23:16.994Z,101507.81
2022-09-01T20:25:48.698Z,101507.44
2022-09-01T20:28:32.457Z,101506.72
2022-09-01T20:31:03.879Z,101519.44
2022-09-01T20:33:47.450Z,101508.28
2022-09-01T20:36:23.556Z,101514.94
2022-09-01T20:39:46.772Z,101514.94
2022-09-01T20:42:19.848Z,101505.88
2022-09-01T20:44:56.614Z,101508.69
2022-09-01T20:47:26.363Z,101518.31
2022-09-01T20:49:52.523Z,101512.81
2022-09-01T20:52:57.011Z,101511.53
2022-09-01T20:55:32.040Z,101520.44
2022-09-01T20:58:09.029Z,101521.38
2022-09-01T21:00:50.580Z,101519.28
2022-09-01T21:03:51.149Z,101521.28
2022-09-01T21:06:44.859Z,101523.41
2022-09-01T21:09:20.975Z,101521.44
2022-09-01T21:12:03.890Z,101521.88
2022-09-01T21:14:48.523Z,101530.47
2022-09-01T21:17:35.537Z,101525.81
2022-09-01T21:20:44.040Z,101524.28
2022-09-01T21:23:10.221Z,101525.25
2022-09-01T21:25:36.367Z,101516.34
2022-09-01T21:28:06.668Z,101523.69
2022-09-01T21:30:35.249Z,101520.00
2022-09-01T21:33:01.724Z,101527.34
2022-09-01T21:35:28.506Z,101521.00
2022-09-01T21:37:54.716Z,101525.38
2022-09-01T21:40:24.331Z,101528.06
2022-09-01T21:43:01.475Z,101521.00
2022-09-01T21:45:27.819Z,101520.16
2022-09-01T21:47:54.449Z,101514.06
2022-09-01T21:50:23.828Z,101513.38
2022-09-01T21:52:49.991Z,101512.66
2022-09-01T21:55:19.549Z,101519.03
2022-09-01T21:57:48.834Z,101513.66
2022-09-01T22:00:18.779Z,101517.19
2022-09-01T22:02:45.461Z,101512.09
2022-09-01T22:05:12.443Z,101517.91
2022-09-01T22:07:40.914Z,101519.88
2022-09-01T22:10:10.322Z,101518.47
2022-09-01T22:12:38.702Z,101515.22
2022-09-01T22:15:07.542Z,101513.53
2022-09-01T22:17:33.700Z,101517.31
2022-09-01T22:20:00.961Z,101505.88
2022-09-01T22:22:27.132Z,101502.50
2022-09-01T22:24:53.304Z,101514.22
2022-09-01T22:27:19.525Z,101514.50
2022-09-01T22:29:46.798Z,101509.56
2022-09-01T22:32:13.159Z,101515.19
2022-09-01T22:34:39.872Z,101506.00
2022-09-01T22:37:09.976Z,101512.50
2022-09-01T22:39:36.221Z,101509.00
2022-09-01T22:42:03.941Z,101507.00
2022-09-01T22:44:30.091Z,101505.31
2022-09-01T22:46:58.094Z,101512.66
2022-09-01T22:49:24.299Z,101507.00
2022-09-01T22:51:50.490Z,101510.09
2022-09-01T22:54:17.052Z,101505.59
2022-09-01T22:56:43.443Z,101504.59
2022-09-01T22:59:13.328Z,101506.44
2022-09-01T23:01:42.703Z,101496.69
2022-09-01T23:04:11.853Z,101502.06
2022-09-01T23:06:41.832Z,101505.88
2022-09-01T23:09:09.322Z,101503.50
2022-09-01T23:11:35.984Z,101499.94
2022-09-01T23:14:02.600Z,101498.41
2022-09-01T23:16:28.983Z,101505.72
2022-09-01T23:18:56.077Z,101496.28
2022-09-01T23:21:26.822Z,101502.59
2022-09-01T23:23:58.312Z,101497.41
2022-09-01T23:26:24.987Z,101494.00
2022-09-01T23:28:51.126Z,101493.00
2022-09-01T23:31:21.013Z,101492.31
2022-09-01T23:33:48.927Z,101493.28
2022-09-01T23:36:18.787Z,101490.59
2022-09-01T23:38:46.823Z,101486.94
2022-09-01T23:41:17.212Z,101482.00
2022-09-01T23:43:43.424Z,101483.81
2022-09-01T23:46:18.524Z,101490.91
2022-09-01T23:48:44.706Z,101483.81
2022-09-01T23:51:11.496Z,101482.41
2022-09-01T23:53:39.051Z,101481.69
2022-09-01T23:56:10.848Z,101486.94
2022-09-01T23:58:37.362Z,101480.72
